createdAt,value
2022-12-27T00:36:40.732Z,99.90
2022-12-27T02:15:33.193Z,99.90
2022-12-27T02:40:10.320Z,99.90
2022-12-27T03:32:09.236Z,99.90
2022-12-27T04:40:40.152Z,99.90
2022-12-27T06:55:31.447Z,99.90
2022-12-27T09:02:25.581Z,99.90
2022-12-27T09:04:52.495Z,99.90
2022-12-27T09:07:19.669Z,99.90
2022-12-27T09:09:46.602Z,99.90
2022-12-27T09:12:13.491Z,99.90
2022-12-27T09:14:40.501Z,99.90
2022-12-27T09:17:09.462Z,99.90
2022-12-27T09:19:36.338Z,99.90
2022-12-27T09:22:03.301Z,99.90
2022-12-27T09:24:30.116Z,99.90
2022-12-27T09:26:56.879Z,99.90
2022-12-27T09:29:23.671Z,98.40
2022-12-27T09:31:50.413Z,93.70
2022-12-27T09:34:17.268Z,92.40
2022-12-27T09:36:44.144Z,95.30
2022-12-27T09:39:13.694Z,91.30
2022-12-27T09:45:00.842Z,82.20
2022-12-27T09:47:32.940Z,77.90
2022-12-27T09:50:10.260Z,75.40
2022-12-27T09:52:49.409Z,62.20
2022-12-27T09:55:19.761Z,68.10
2022-12-27T09:57:47.588Z,75.80
2022-12-27T10:00:29.685Z,73.90
2022-12-27T10:08:41.343Z,76.70
2022-12-27T10:11:34.130Z,63.20
2022-12-27T10:14:19.651Z,45.20
2022-12-27T10:17:03.016Z,20.60
2022-12-27T10:19:50.461Z,4.30
2022-12-27T10:22:49.837Z,1.00
2022-12-27T10:25:19.708Z,1.00
2022-12-27T10:27:47.459Z,1.00
2022-12-27T10:30:20.209Z,1.00
2022-12-27T10:32:49.880Z,1.00
2022-12-27T10:35:21.106Z,1.00
2022-12-27T10:37:48.945Z,1.00
2022-12-27T10:40:34.315Z,1.00
2022-12-27T10:43:04.772Z,1.00
2022-12-27T10:45:39.744Z,1.00
2022-12-27T10:48:25.102Z,1.00
2022-12-27T10:51:02.197Z,1.00
2022-12-27T10:53:47.144Z,1.00
2022-12-27T10:56:19.829Z,1.00
2022-12-27T10:58:58.235Z,1.00
2022-12-27T11:01:28.370Z,1.00
2022-12-27T11:04:21.000Z,1.00
2022-12-27T11:07:10.681Z,1.00
2022-12-27T11:12:32.008Z,1.00
2022-12-27T11:15:11.135Z,1.00
2022-12-27T11:17:42.581Z,1.00
2022-12-27T11:20:15.035Z,99.90
2022-12-27T11:22:51.857Z,99.90
2022-12-27T11:25:21.885Z,99.90
2022-12-27T11:27:52.620Z,1.00
2022-12-27T11:30:29.189Z,1.00
2022-12-27T11:33:07.571Z,1.00
2022-12-27T11:35:37.280Z,1.00
2022-12-27T11:38:04.009Z,1.00
2022-12-27T11:40:34.641Z,1.00
2022-12-27T11:43:11.987Z,1.00
2022-12-27T11:45:42.635Z,1.00
2022-12-27T11:48:21.030Z,1.00
2022-12-27T11:50:55.679Z,1.00
2022-12-27T11:53:56.230Z,1.00
2022-12-27T11:56:54.844Z,1.00
2022-12-27T11:59:32.436Z,1.00
2022-12-27T12:02:32.899Z,1.00
2022-12-27T12:05:12.914Z,1.00
2022-12-27T12:08:08.015Z,1.00
2022-12-27T12:10:53.568Z,1.00
2022-12-27T12:13:59.183Z,1.00
2022-12-27T12:16:55.749Z,1.00
2022-12-27T12:20:04.615Z,1.00
2022-12-27T12:22:56.040Z,1.00
2022-12-27T12:25:28.640Z,1.00
2022-12-27T12:28:30.345Z,1.00
2022-12-27T12:31:00.811Z,1.00
2022-12-27T12:33:58.630Z,1.00
2022-12-27T12:36:52.963Z,1.00
2022-12-27T12:39:47.796Z,1.00
2022-12-27T12:42:29.667Z,1.00
2022-12-27T12:45:15.043Z,1.00
2022-12-27T12:48:07.670Z,1.00
2022-12-27T12:50:53.470Z,1.00
2022-12-27T12:53:23.063Z,1.00
2022-12-27T12:56:14.569Z,99.90
2022-12-27T12:59:10.565Z,99.90
2022-12-27T13:01:54.305Z,99.90
2022-12-27T13:07:42.215Z,1.00
2022-12-27T13:10:38.347Z,1.00
2022-12-27T13:19:06.830Z,99.90
2022-12-27T13:21:57.520Z,99.90
2022-12-27T13:24:43.016Z,99.90
2022-12-27T13:27:15.642Z,99.90
2022-12-27T13:35:28.923Z,99.90
2022-12-27T13:38:20.609Z,99.90
2022-12-27T13:41:18.256Z,1.00
2022-12-27T13:44:03.153Z,1.00
2022-12-27T13:46:44.400Z,1.00
2022-12-27T13:49:29.225Z,1.00
2022-12-27T13:52:21.672Z,1.00
2022-12-27T13:55:39.279Z,1.00
2022-12-27T13:58:20.675Z,1.00
2022-12-27T14:04:37.491Z,1.00
2022-12-27T14:07:19.680Z,99.90
2022-12-27T14:10:13.578Z,1.00
2022-12-27T14:43:30.937Z,99.90
2022-12-27T14:46:30.659Z,1.00
2022-12-27T14:49:07.617Z,1.00
2022-12-27T14:52:04.733Z,1.00
2022-12-27T15:38:54.512Z,99.90
